TOCUMWAL AIRPORT, Australia

10:41 AM AEDT on February 27, 2017 (GMT +1100)
Cobram | | Change Station

Elev 387 ft 35.92 °S, 145.67 °E | Updated 4 seconds ago

Clear
Clear
76.8 °F
Feels Like 78 °F
N
3.6
Wind Variable Wind from NNE
Gusts 4.9 mph

Today
High -- | Low -- °F
--% Chance of Precip.
Yesterday
High -- | Low -- °F
Precip. -- in
Pressure 30.24 in
Visibility 6.2 miles
Clouds
Heat Index 78 °F
Dew Point 55 °F
Humidity 47%
Rainfall 0.00 in
Snow Depth Not available.
7:01 AM 7:58 PM
New Moon, 0% visible
METAR YWGT 262300Z AUTO 14004KT 110V190 9999 // NCD 22/11 Q1024
Pressure 30.24 in
Visibility 6.2 miles
Clouds
Heat Index 78 °F
Dew Point 55 °F
Humidity 47%
Rainfall 0.00 in
Snow Depth Not available.
7:01 AM 7:58 PM
New Moon, 0% visible
METAR YWGT 262300Z AUTO 14004KT 110V190 9999 // NCD 22/11 Q1024

Get Your Daily Forecast Email!

Thanks for signing up!

Be on the lookout for a verification email in your inbox.

You'll start receiving the daily forecast at 8 AM.

×

10-Day Weather Forecast

×

Almanac

Astronomy

Feb. 27, 2017 Rise Set
Actual Time
Civil Twilight
Nautical Twilight
Astronomical Twilight
Moon
Length of Visible Light
Length of Day
Tomorrow will be .
, % of the Moon is Illuminated

Today's Extremes

Country Highs Country Lows

Community

WunderPhotos

Upload Photos

1,962,540 photos uploaded!

WunderBlog® & News

Nearby

Air Quality

  Air Quality AQ Index Pollutant
Not available.

Snow Depth

Station Depth Elevation

Earthquake Activity

City Distance Mag. Time & Date
Minimum magnitude displayed is 2.5.

Coastal Water Temperatures

Place Temperature

Stations

Nearby Weather Stations

Station Location Temp. Windchill Dew Point Humidity Wind Precip. Elev Updated Type